sensor_id;sensor_type;location;lat;lon;timestamp;P1;durP1;ratioP1;P2;durP2;ratioP2
31808;SDS011;18379;48.208;-1.518;2023-03-04T00:02:52;41.87;;;38.40;;
31808;SDS011;18379;48.208;-1.518;2023-03-04T00:07:53;45.03;;;40.93;;
31808;SDS011;18379;48.208;-1.518;2023-03-04T00:12:54;48.70;;;44.00;;
31808;SDS011;18379;48.208;-1.518;2023-03-04T00:17:55;54.30;;;48.43;;
31808;SDS011;18379;48.208;-1.518;2023-03-04T00:22:55;54.33;;;48.43;;
31808;SDS011;18379;48.208;-1.518;2023-03-04T00:27:56;62.43;;;54.03;;
31808;SDS011;18379;48.208;-1.518;2023-03-04T00:32:57;59.63;;;53.30;;
31808;SDS011;18379;48.208;-1.518;2023-03-04T00:37:58;62.60;;;56.07;;
31808;SDS011;18379;48.208;-1.518;2023-03-04T00:42:59;60.87;;;54.27;;
31808;SDS011;18379;48.208;-1.518;2023-03-04T00:47:59;47.30;;;42.73;;
31808;SDS011;18379;48.208;-1.518;2023-03-04T00:53:00;47.73;;;43.20;;
31808;SDS011;18379;48.208;-1.518;2023-03-04T00:58:01;47.77;;;42.97;;
31808;SDS011;18379;48.208;-1.518;2023-03-04T01:03:02;51.97;;;46.63;;
31808;SDS011;18379;48.208;-1.518;2023-03-04T01:08:03;48.20;;;43.10;;
31808;SDS011;18379;48.208;-1.518;2023-03-04T01:13:04;49.10;;;44.27;;
31808;SDS011;18379;48.208;-1.518;2023-03-04T01:18:05;45.20;;;41.03;;
31808;SDS011;18379;48.208;-1.518;2023-03-04T01:23:06;46.30;;;41.70;;
31808;SDS011;18379;48.208;-1.518;2023-03-04T01:28:06;47.20;;;42.67;;
31808;SDS011;18379;48.208;-1.518;2023-03-04T01:33:07;48.13;;;42.83;;
31808;SDS011;18379;48.208;-1.518;2023-03-04T01:38:08;47.67;;;42.87;;
31808;SDS011;18379;48.208;-1.518;2023-03-04T01:43:11;49.00;;;44.03;;
31808;SDS011;18379;48.208;-1.518;2023-03-04T01:48:21;57.00;;;46.20;;
31808;SDS011;18379;48.208;-1.518;2023-03-04T01:53:26;52.70;;;46.83;;
31808;SDS011;18379;48.208;-1.518;2023-03-04T01:58:28;89.17;;;66.00;;
31808;SDS011;18379;48.208;-1.518;2023-03-04T02:03:30;71.00;;;58.40;;
31808;SDS011;18379;48.208;-1.518;2023-03-04T02:08:31;71.93;;;58.83;;
31808;SDS011;18379;48.208;-1.518;2023-03-04T02:13:34;65.77;;;57.60;;
31808;SDS011;18379;48.208;-1.518;2023-03-04T02:18:36;62.57;;;55.80;;
31808;SDS011;18379;48.208;-1.518;2023-03-04T02:23:58;68.97;;;59.00;;
31808;SDS011;18379;48.208;-1.518;2023-03-04T02:29:16;44.53;;;39.93;;
31808;SDS011;18379;48.208;-1.518;2023-03-04T02:34:18;43.83;;;39.33;;
31808;SDS011;18379;48.208;-1.518;2023-03-04T02:44:22;44.90;;;40.43;;
31808;SDS011;18379;48.208;-1.518;2023-03-04T02:49:30;48.20;;;43.07;;
31808;SDS011;18379;48.208;-1.518;2023-03-04T02:54:33;48.03;;;43.03;;
31808;SDS011;18379;48.208;-1.518;2023-03-04T02:59:34;59.73;;;47.93;;
31808;SDS011;18379;48.208;-1.518;2023-03-04T03:04:36;58.90;;;46.07;;
31808;SDS011;18379;48.208;-1.518;2023-03-04T03:09:39;49.73;;;44.30;;
31808;SDS011;18379;48.208;-1.518;2023-03-04T03:14:43;53.20;;;46.00;;
31808;SDS011;18379;48.208;-1.518;2023-03-04T03:19:44;45.17;;;40.33;;
31808;SDS011;18379;48.208;-1.518;2023-03-04T03:24:44;44.23;;;39.53;;
31808;SDS011;18379;48.208;-1.518;2023-03-04T03:29:45;45.60;;;40.37;;
31808;SDS011;18379;48.208;-1.518;2023-03-04T03:34:46;45.57;;;39.83;;
31808;SDS011;18379;48.208;-1.518;2023-03-04T03:39:47;45.03;;;39.27;;
31808;SDS011;18379;48.208;-1.518;2023-03-04T03:44:47;48.07;;;41.30;;
31808;SDS011;18379;48.208;-1.518;2023-03-04T03:49:49;50.17;;;40.63;;
31808;SDS011;18379;48.208;-1.518;2023-03-04T03:54:50;45.80;;;41.07;;
31808;SDS011;18379;48.208;-1.518;2023-03-04T03:59:50;44.83;;;39.10;;
31808;SDS011;18379;48.208;-1.518;2023-03-04T04:04:51;45.03;;;39.83;;
31808;SDS011;18379;48.208;-1.518;2023-03-04T04:09:52;47.00;;;40.13;;
31808;SDS011;18379;48.208;-1.518;2023-03-04T04:14:53;44.63;;;39.87;;
31808;SDS011;18379;48.208;-1.518;2023-03-04T04:19:54;48.50;;;40.77;;
31808;SDS011;18379;48.208;-1.518;2023-03-04T04:24:55;47.17;;;40.13;;
31808;SDS011;18379;48.208;-1.518;2023-03-04T04:29:56;45.50;;;40.63;;
31808;SDS011;18379;48.208;-1.518;2023-03-04T04:34:57;52.47;;;43.60;;
31808;SDS011;18379;48.208;-1.518;2023-03-04T04:39:57;47.20;;;41.63;;
31808;SDS011;18379;48.208;-1.518;2023-03-04T04:44:59;51.10;;;42.27;;
31808;SDS011;18379;48.208;-1.518;2023-03-04T04:49:59;53.90;;;43.87;;
31808;SDS011;18379;48.208;-1.518;2023-03-04T04:55:00;58.80;;;43.50;;
31808;SDS011;18379;48.208;-1.518;2023-03-04T05:00:03;54.00;;;44.03;;
31808;SDS011;18379;48.208;-1.518;2023-03-04T05:05:05;48.67;;;42.23;;
31808;SDS011;18379;48.208;-1.518;2023-03-04T05:10:07;65.57;;;41.23;;
31808;SDS011;18379;48.208;-1.518;2023-03-04T05:15:09;58.27;;;45.70;;
31808;SDS011;18379;48.208;-1.518;2023-03-04T05:20:11;54.13;;;43.07;;
31808;SDS011;18379;48.208;-1.518;2023-03-04T05:25:12;51.13;;;41.43;;
31808;SDS011;18379;48.208;-1.518;2023-03-04T05:30:13;52.97;;;43.60;;
31808;SDS011;18379;48.208;-1.518;2023-03-04T05:35:14;47.17;;;40.50;;
31808;SDS011;18379;48.208;-1.518;2023-03-04T05:40:15;52.30;;;40.63;;
31808;SDS011;18379;48.208;-1.518;2023-03-04T05:45:16;43.87;;;39.03;;
31808;SDS011;18379;48.208;-1.518;2023-03-04T05:50:17;48.03;;;39.17;;
31808;SDS011;18379;48.208;-1.518;2023-03-04T05:55:18;46.83;;;39.43;;
31808;SDS011;18379;48.208;-1.518;2023-03-04T06:00:19;45.43;;;39.53;;
31808;SDS011;18379;48.208;-1.518;2023-03-04T06:05:20;47.33;;;39.33;;
31808;SDS011;18379;48.208;-1.518;2023-03-04T06:10:23;46.00;;;39.17;;
31808;SDS011;18379;48.208;-1.518;2023-03-04T06:15:23;50.70;;;39.97;;
31808;SDS011;18379;48.208;-1.518;2023-03-04T06:20:24;52.67;;;42.70;;
31808;SDS011;18379;48.208;-1.518;2023-03-04T06:25:25;62.17;;;44.43;;
31808;SDS011;18379;48.208;-1.518;2023-03-04T06:30:27;65.00;;;48.90;;
31808;SDS011;18379;48.208;-1.518;2023-03-04T06:35:28;70.67;;;54.17;;
31808;SDS011;18379;48.208;-1.518;2023-03-04T06:40:28;63.27;;;51.23;;
31808;SDS011;18379;48.208;-1.518;2023-03-04T06:45:29;61.33;;;44.90;;
31808;SDS011;18379;48.208;-1.518;2023-03-04T06:50:30;59.70;;;45.13;;
31808;SDS011;18379;48.208;-1.518;2023-03-04T06:55:31;51.63;;;43.07;;
31808;SDS011;18379;48.208;-1.518;2023-03-04T07:00:31;55.40;;;43.00;;
31808;SDS011;18379;48.208;-1.518;2023-03-04T07:05:33;55.07;;;42.73;;
31808;SDS011;18379;48.208;-1.518;2023-03-04T07:10:34;59.83;;;44.43;;
31808;SDS011;18379;48.208;-1.518;2023-03-04T07:15:36;55.00;;;45.43;;
31808;SDS011;18379;48.208;-1.518;2023-03-04T07:20:36;51.90;;;41.93;;
31808;SDS011;18379;48.208;-1.518;2023-03-04T07:25:37;49.87;;;41.43;;
31808;SDS011;18379;48.208;-1.518;2023-03-04T07:30:38;50.50;;;41.50;;
31808;SDS011;18379;48.208;-1.518;2023-03-04T07:35:39;59.87;;;46.63;;
31808;SDS011;18379;48.208;-1.518;2023-03-04T07:40:40;49.67;;;42.53;;
31808;SDS011;18379;48.208;-1.518;2023-03-04T07:45:41;46.67;;;41.07;;
31808;SDS011;18379;48.208;-1.518;2023-03-04T07:50:42;56.73;;;49.13;;
31808;SDS011;18379;48.208;-1.518;2023-03-04T07:55:42;56.40;;;49.90;;
31808;SDS011;18379;48.208;-1.518;2023-03-04T08:00:47;51.07;;;45.37;;
31808;SDS011;18379;48.208;-1.518;2023-03-04T08:05:48;49.90;;;41.73;;
31808;SDS011;18379;48.208;-1.518;2023-03-04T08:10:49;42.53;;;38.40;;
31808;SDS011;18379;48.208;-1.518;2023-03-04T08:15:50;44.17;;;39.87;;
31808;SDS011;18379;48.208;-1.518;2023-03-04T08:20:51;46.10;;;41.50;;
31808;SDS011;18379;48.208;-1.518;2023-03-04T08:25:52;44.03;;;40.03;;
31808;SDS011;18379;48.208;-1.518;2023-03-04T08:30:53;59.97;;;47.97;;
31808;SDS011;18379;48.208;-1.518;2023-03-04T08:35:55;100.37;;;62.97;;
31808;SDS011;18379;48.208;-1.518;2023-03-04T08:40:57;61.47;;;52.17;;
31808;SDS011;18379;48.208;-1.518;2023-03-04T08:46:00;48.90;;;43.80;;
31808;SDS011;18379;48.208;-1.518;2023-03-04T08:51:08;48.40;;;43.63;;
31808;SDS011;18379;48.208;-1.518;2023-03-04T08:56:11;46.30;;;41.90;;
31808;SDS011;18379;48.208;-1.518;2023-03-04T09:01:13;43.50;;;39.87;;
31808;SDS011;18379;48.208;-1.518;2023-03-04T09:06:15;47.67;;;43.27;;
31808;SDS011;18379;48.208;-1.518;2023-03-04T09:11:16;44.00;;;40.40;;
31808;SDS011;18379;48.208;-1.518;2023-03-04T09:16:16;44.47;;;40.63;;
31808;SDS011;18379;48.208;-1.518;2023-03-04T09:21:21;45.33;;;41.53;;
31808;SDS011;18379;48.208;-1.518;2023-03-04T09:26:26;45.10;;;40.97;;
31808;SDS011;18379;48.208;-1.518;2023-03-04T09:31:28;48.17;;;43.67;;
31808;SDS011;18379;48.208;-1.518;2023-03-04T09:36:29;47.93;;;43.67;;
31808;SDS011;18379;48.208;-1.518;2023-03-04T09:41:35;47.47;;;43.60;;
31808;SDS011;18379;48.208;-1.518;2023-03-04T09:46:42;46.23;;;42.50;;
31808;SDS011;18379;48.208;-1.518;2023-03-04T09:51:55;44.20;;;40.97;;
31808;SDS011;18379;48.208;-1.518;2023-03-04T10:08:26;47.40;;;43.20;;
31808;SDS011;18379;48.208;-1.518;2023-03-04T10:19:14;48.10;;;44.20;;
31808;SDS011;18379;48.208;-1.518;2023-03-04T10:24:26;45.97;;;42.40;;
31808;SDS011;18379;48.208;-1.518;2023-03-04T10:29:29;49.37;;;45.10;;
31808;SDS011;18379;48.208;-1.518;2023-03-04T10:34:31;51.20;;;46.30;;
31808;SDS011;18379;48.208;-1.518;2023-03-04T10:39:35;51.67;;;47.37;;
31808;SDS011;18379;48.208;-1.518;2023-03-04T10:44:52;53.67;;;49.13;;
31808;SDS011;18379;48.208;-1.518;2023-03-04T10:49:59;50.57;;;46.30;;
31808;SDS011;18379;48.208;-1.518;2023-03-04T10:55:06;53.23;;;48.60;;
31808;SDS011;18379;48.208;-1.518;2023-03-04T11:10:31;48.07;;;43.73;;
31808;SDS011;18379;48.208;-1.518;2023-03-04T11:15:50;48.33;;;44.33;;
31808;SDS011;18379;48.208;-1.518;2023-03-04T11:21:05;51.03;;;47.37;;
31808;SDS011;18379;48.208;-1.518;2023-03-04T11:26:11;50.60;;;46.53;;
31808;SDS011;18379;48.208;-1.518;2023-03-04T11:31:18;45.13;;;41.87;;
31808;SDS011;18379;48.208;-1.518;2023-03-04T11:36:24;46.90;;;43.17;;
31808;SDS011;18379;48.208;-1.518;2023-03-04T11:41:38;49.77;;;45.90;;
31808;SDS011;18379;48.208;-1.518;2023-03-04T12:08:12;55.00;;;50.93;;
31808;SDS011;18379;48.208;-1.518;2023-03-04T12:13:34;48.07;;;44.70;;
31808;SDS011;18379;48.208;-1.518;2023-03-04T12:24:33;49.67;;;45.67;;
31808;SDS011;18379;48.208;-1.518;2023-03-04T12:29:45;50.37;;;46.63;;
31808;SDS011;18379;48.208;-1.518;2023-03-04T12:50:35;51.60;;;47.70;;
31808;SDS011;18379;48.208;-1.518;2023-03-04T12:55:51;48.00;;;44.43;;
31808;SDS011;18379;48.208;-1.518;2023-03-04T13:01:03;49.60;;;45.40;;
31808;SDS011;18379;48.208;-1.518;2023-03-04T13:16:29;48.07;;;44.47;;
31808;SDS011;18379;48.208;-1.518;2023-03-04T13:21:45;49.47;;;45.80;;
31808;SDS011;18379;48.208;-1.518;2023-03-04T13:26:48;50.67;;;47.00;;
31808;SDS011;18379;48.208;-1.518;2023-03-04T13:31:59;49.40;;;45.33;;
31808;SDS011;18379;48.208;-1.518;2023-03-04T13:37:11;52.67;;;48.53;;
31808;SDS011;18379;48.208;-1.518;2023-03-04T13:48:23;56.63;;;52.00;;
31808;SDS011;18379;48.208;-1.518;2023-03-04T13:53:37;53.80;;;49.37;;
31808;SDS011;18379;48.208;-1.518;2023-03-04T13:58:40;52.77;;;48.30;;
31808;SDS011;18379;48.208;-1.518;2023-03-04T14:03:41;54.17;;;49.33;;
31808;SDS011;18379;48.208;-1.518;2023-03-04T14:08:43;53.60;;;49.23;;
31808;SDS011;18379;48.208;-1.518;2023-03-04T14:13:45;57.57;;;52.80;;
31808;SDS011;18379;48.208;-1.518;2023-03-04T14:18:55;53.13;;;48.97;;
31808;SDS011;18379;48.208;-1.518;2023-03-04T14:24:06;54.67;;;50.33;;
31808;SDS011;18379;48.208;-1.518;2023-03-04T14:29:27;52.97;;;48.80;;
31808;SDS011;18379;48.208;-1.518;2023-03-04T14:34:38;54.37;;;49.73;;
31808;SDS011;18379;48.208;-1.518;2023-03-04T14:39:42;53.30;;;48.97;;
31808;SDS011;18379;48.208;-1.518;2023-03-04T14:44:44;51.63;;;47.67;;
31808;SDS011;18379;48.208;-1.518;2023-03-04T14:49:49;47.60;;;44.30;;
31808;SDS011;18379;48.208;-1.518;2023-03-04T14:55:00;50.23;;;46.33;;
31808;SDS011;18379;48.208;-1.518;2023-03-04T15:05:31;48.97;;;45.40;;
31808;SDS011;18379;48.208;-1.518;2023-03-04T15:10:35;51.83;;;47.63;;
31808;SDS011;18379;48.208;-1.518;2023-03-04T15:20:51;51.03;;;47.13;;
31808;SDS011;18379;48.208;-1.518;2023-03-04T15:26:00;49.63;;;45.90;;
31808;SDS011;18379;48.208;-1.518;2023-03-04T15:31:03;51.83;;;47.80;;
31808;SDS011;18379;48.208;-1.518;2023-03-04T15:36:05;50.50;;;46.77;;
31808;SDS011;18379;48.208;-1.518;2023-03-04T15:41:10;52.80;;;48.67;;
31808;SDS011;18379;48.208;-1.518;2023-03-04T15:46:16;50.73;;;46.67;;
31808;SDS011;18379;48.208;-1.518;2023-03-04T15:51:19;46.13;;;42.97;;
31808;SDS011;18379;48.208;-1.518;2023-03-04T15:56:28;47.83;;;44.30;;
31808;SDS011;18379;48.208;-1.518;2023-03-04T16:01:31;54.67;;;49.87;;
31808;SDS011;18379;48.208;-1.518;2023-03-04T16:06:32;49.17;;;45.53;;
31808;SDS011;18379;48.208;-1.518;2023-03-04T16:11:34;49.93;;;46.07;;
31808;SDS011;18379;48.208;-1.518;2023-03-04T16:16:41;48.60;;;45.00;;
31808;SDS011;18379;48.208;-1.518;2023-03-04T16:21:43;47.80;;;44.27;;
31808;SDS011;18379;48.208;-1.518;2023-03-04T16:26:44;48.37;;;44.87;;
31808;SDS011;18379;48.208;-1.518;2023-03-04T16:31:45;43.93;;;41.23;;
31808;SDS011;18379;48.208;-1.518;2023-03-04T16:36:46;46.77;;;43.57;;
31808;SDS011;18379;48.208;-1.518;2023-03-04T16:41:47;45.30;;;42.30;;
31808;SDS011;18379;48.208;-1.518;2023-03-04T16:46:48;45.83;;;42.83;;
31808;SDS011;18379;48.208;-1.518;2023-03-04T16:51:49;45.83;;;42.60;;
31808;SDS011;18379;48.208;-1.518;2023-03-04T16:56:50;44.70;;;41.90;;
31808;SDS011;18379;48.208;-1.518;2023-03-04T17:01:54;45.37;;;42.30;;
31808;SDS011;18379;48.208;-1.518;2023-03-04T17:06:55;48.73;;;44.90;;
31808;SDS011;18379;48.208;-1.518;2023-03-04T17:11:56;48.73;;;45.17;;
31808;SDS011;18379;48.208;-1.518;2023-03-04T17:16:57;49.77;;;45.93;;
31808;SDS011;18379;48.208;-1.518;2023-03-04T17:21:59;49.77;;;45.83;;
31808;SDS011;18379;48.208;-1.518;2023-03-04T17:27:01;51.77;;;47.73;;
31808;SDS011;18379;48.208;-1.518;2023-03-04T17:32:02;51.23;;;47.17;;
31808;SDS011;18379;48.208;-1.518;2023-03-04T17:37:03;51.90;;;47.73;;
31808;SDS011;18379;48.208;-1.518;2023-03-04T17:42:04;49.43;;;45.57;;
31808;SDS011;18379;48.208;-1.518;2023-03-04T17:47:05;54.00;;;49.00;;
31808;SDS011;18379;48.208;-1.518;2023-03-04T17:52:06;53.10;;;48.77;;
31808;SDS011;18379;48.208;-1.518;2023-03-04T17:57:07;50.93;;;46.83;;
31808;SDS011;18379;48.208;-1.518;2023-03-04T18:02:15;55.47;;;50.73;;
31808;SDS011;18379;48.208;-1.518;2023-03-04T18:07:16;46.83;;;43.50;;
31808;SDS011;18379;48.208;-1.518;2023-03-04T18:12:17;48.50;;;44.90;;
31808;SDS011;18379;48.208;-1.518;2023-03-04T18:17:18;47.47;;;43.80;;
31808;SDS011;18379;48.208;-1.518;2023-03-04T18:22:19;46.57;;;43.07;;
31808;SDS011;18379;48.208;-1.518;2023-03-04T18:27:20;47.47;;;43.90;;
31808;SDS011;18379;48.208;-1.518;2023-03-04T18:32:20;45.87;;;42.40;;
31808;SDS011;18379;48.208;-1.518;2023-03-04T18:37:21;48.60;;;44.40;;
31808;SDS011;18379;48.208;-1.518;2023-03-04T18:42:22;61.17;;;54.67;;
31808;SDS011;18379;48.208;-1.518;2023-03-04T18:47:23;50.87;;;46.97;;
31808;SDS011;18379;48.208;-1.518;2023-03-04T18:52:24;50.50;;;46.00;;
31808;SDS011;18379;48.208;-1.518;2023-03-04T18:57:25;45.87;;;42.67;;
31808;SDS011;18379;48.208;-1.518;2023-03-04T19:07:30;50.83;;;46.30;;
31808;SDS011;18379;48.208;-1.518;2023-03-04T19:12:31;53.20;;;48.40;;
31808;SDS011;18379;48.208;-1.518;2023-03-04T19:17:33;56.30;;;51.20;;
31808;SDS011;18379;48.208;-1.518;2023-03-04T19:22:34;51.47;;;47.57;;
31808;SDS011;18379;48.208;-1.518;2023-03-04T19:27:36;57.10;;;51.27;;
31808;SDS011;18379;48.208;-1.518;2023-03-04T19:32:37;57.47;;;52.37;;
31808;SDS011;18379;48.208;-1.518;2023-03-04T19:37:38;52.33;;;47.90;;
31808;SDS011;18379;48.208;-1.518;2023-03-04T19:42:38;48.60;;;44.83;;
31808;SDS011;18379;48.208;-1.518;2023-03-04T19:47:39;57.07;;;51.93;;
31808;SDS011;18379;48.208;-1.518;2023-03-04T19:52:40;50.93;;;46.73;;
31808;SDS011;18379;48.208;-1.518;2023-03-04T19:57:42;49.73;;;45.23;;
31808;SDS011;18379;48.208;-1.518;2023-03-04T20:02:43;50.90;;;46.67;;
31808;SDS011;18379;48.208;-1.518;2023-03-04T20:07:45;55.73;;;50.77;;
31808;SDS011;18379;48.208;-1.518;2023-03-04T20:12:46;46.33;;;42.93;;
31808;SDS011;18379;48.208;-1.518;2023-03-04T20:17:48;45.27;;;41.77;;
31808;SDS011;18379;48.208;-1.518;2023-03-04T20:22:52;46.97;;;43.40;;
31808;SDS011;18379;48.208;-1.518;2023-03-04T20:27:57;43.20;;;40.50;;
31808;SDS011;18379;48.208;-1.518;2023-03-04T20:33:21;42.93;;;40.17;;
31808;SDS011;18379;48.208;-1.518;2023-03-04T20:38:24;42.87;;;40.03;;
31808;SDS011;18379;48.208;-1.518;2023-03-04T20:43:26;43.50;;;40.70;;
31808;SDS011;18379;48.208;-1.518;2023-03-04T20:48:28;43.30;;;40.57;;
31808;SDS011;18379;48.208;-1.518;2023-03-04T20:53:31;43.40;;;40.37;;
31808;SDS011;18379;48.208;-1.518;2023-03-04T20:58:33;44.20;;;41.10;;
31808;SDS011;18379;48.208;-1.518;2023-03-04T21:03:36;45.13;;;41.87;;
31808;SDS011;18379;48.208;-1.518;2023-03-04T21:08:37;51.17;;;47.00;;
31808;SDS011;18379;48.208;-1.518;2023-03-04T21:13:38;44.67;;;41.50;;
31808;SDS011;18379;48.208;-1.518;2023-03-04T21:18:42;44.53;;;41.53;;
31808;SDS011;18379;48.208;-1.518;2023-03-04T21:23:44;44.83;;;41.43;;
31808;SDS011;18379;48.208;-1.518;2023-03-04T21:28:46;44.77;;;41.77;;
31808;SDS011;18379;48.208;-1.518;2023-03-04T21:33:48;46.83;;;43.23;;
31808;SDS011;18379;48.208;-1.518;2023-03-04T21:38:51;47.03;;;43.37;;
31808;SDS011;18379;48.208;-1.518;2023-03-04T21:43:51;48.00;;;44.37;;
31808;SDS011;18379;48.208;-1.518;2023-03-04T21:48:53;52.67;;;48.23;;
31808;SDS011;18379;48.208;-1.518;2023-03-04T21:53:54;47.83;;;44.13;;
31808;SDS011;18379;48.208;-1.518;2023-03-04T21:58:57;48.27;;;44.60;;
31808;SDS011;18379;48.208;-1.518;2023-03-04T22:04:01;53.07;;;48.47;;
31808;SDS011;18379;48.208;-1.518;2023-03-04T22:09:02;48.57;;;43.97;;
31808;SDS011;18379;48.208;-1.518;2023-03-04T22:14:04;48.17;;;44.17;;
31808;SDS011;18379;48.208;-1.518;2023-03-04T22:19:05;47.07;;;43.57;;
31808;SDS011;18379;48.208;-1.518;2023-03-04T22:24:06;45.30;;;41.90;;
31808;SDS011;18379;48.208;-1.518;2023-03-04T22:29:07;44.60;;;41.47;;
31808;SDS011;18379;48.208;-1.518;2023-03-04T22:34:09;46.97;;;43.37;;
31808;SDS011;18379;48.208;-1.518;2023-03-04T22:39:13;44.67;;;41.47;;
31808;SDS011;18379;48.208;-1.518;2023-03-04T22:44:16;47.23;;;43.57;;
31808;SDS011;18379;48.208;-1.518;2023-03-04T22:49:16;45.97;;;42.57;;
31808;SDS011;18379;48.208;-1.518;2023-03-04T22:54:17;54.53;;;48.80;;
31808;SDS011;18379;48.208;-1.518;2023-03-04T22:59:18;48.97;;;44.93;;
31808;SDS011;18379;48.208;-1.518;2023-03-04T23:04:19;52.37;;;47.77;;
31808;SDS011;18379;48.208;-1.518;2023-03-04T23:09:21;51.43;;;46.97;;
31808;SDS011;18379;48.208;-1.518;2023-03-04T23:14:21;66.83;;;57.90;;
31808;SDS011;18379;48.208;-1.518;2023-03-04T23:19:22;50.50;;;46.17;;
31808;SDS011;18379;48.208;-1.518;2023-03-04T23:24:23;68.63;;;59.43;;
31808;SDS011;18379;48.208;-1.518;2023-03-04T23:29:25;59.27;;;53.63;;
31808;SDS011;18379;48.208;-1.518;2023-03-04T23:34:26;58.13;;;52.30;;
31808;SDS011;18379;48.208;-1.518;2023-03-04T23:39:27;50.63;;;46.27;;
31808;SDS011;18379;48.208;-1.518;2023-03-04T23:44:28;55.50;;;50.27;;
31808;SDS011;18379;48.208;-1.518;2023-03-04T23:49:28;49.20;;;45.27;;
31808;SDS011;18379;48.208;-1.518;2023-03-04T23:54:29;64.63;;;55.57;;
31808;SDS011;18379;48.208;-1.518;2023-03-04T23:59:30;56.10;;;50.50;;
